Terminal Aerodrome Forecast
Issued by NWS Tampa Bay Area, FL

Home | Current Version | Previous Version | Text Only | Print | Product List | Glossary On
Versions: 1 2 3 4 5 6 7 8 9 10 11 12 13 14 15 16 17 18 19 20 21 22 23 24 25 26 27 28 29
000
FTUS42 KTBW 261700
TAFTPA
TAF
KTPA 261733Z 2618/2718 24008KT P6SM SCT035 BKN250
     FM270000 25005KT P6SM SCT250
     FM270900 VRB03KT P6SM VCTS SCT025CB
     FM271500 24006KT P6SM VCTS SCT035CB=

USA.gov is the U.S. government's official web portal to all federal, state and local government web resources and services.